This is the latest recevied weather packets stored in our database for station/object F4AMY-13. If no packets are shown the sender has not sent any weather packets the latest 10 day(s).
| Time | Temp. | Humidity | Pressure | Rain* | Wind** | Luminosity | Snow |
|---|---|---|---|---|---|---|---|
| 1777390283 | 24.44° C | 43% | 1011.8 hPa | 0 mm | 122.94 m/s, ° | 275 W/m² | - |
| 1777389983 | 25° C | 40% | 1011.6 hPa | 0 mm | 112.21 m/s, ° | 251 W/m² | - |
| 1777389683 | 25° C | 38% | 1011.7 hPa | 0 mm | 80.47 m/s, ° | 180 W/m² | - |
| 1777389383 | 25.56° C | 41% | 1011.7 hPa | 0 mm | 124.72 m/s, ° | 279 W/m² | - |
| 1777389083 | 25.56° C | 38% | 1011.8 hPa | 0 mm | 128.3 m/s, ° | 287 W/m² | - |
| 1777388783 | 25.56° C | 38% | 1011.8 hPa | 0 mm | 97.45 m/s, ° | 218 W/m² | - |
| 1777388483 | 25.56° C | 39% | 1011.9 hPa | 0 mm | 144.84 m/s, ° | 324 W/m² | - |
| 1777388183 | 25.56° C | 39% | 1011.7 hPa | 0 mm | 144.84 m/s, ° | 324 W/m² | - |
| 1777387883 | 25.56° C | 36% | 1011.6 hPa | 0 mm | 171.66 m/s, ° | 384 W/m² | - |
| 1777387583 | 25.56° C | 37% | 1011.6 hPa | 0 mm | 154.23 m/s, ° | 345 W/m² | - |
| 1777387282 | 25.56° C | 32% | 1011.8 hPa | 0 mm | 168.09 m/s, ° | 376 W/m² | - |
| 1777386982 | 25.56° C | 32% | 1011.7 hPa | 0 mm | 148.42 m/s, ° | 332 W/m² | - |
| 1777386682 | 25.56° C | 31% | 1012 hPa | 0 mm | 164.96 m/s, ° | 369 W/m² | - |
| 1777386382 | 25.56° C | 34% | 1011.7 hPa | 0 mm | 161.38 m/s, ° | 361 W/m² | - |
| 1777386082 | 25.56° C | 33% | 1011.9 hPa | 0 mm | 164.96 m/s, ° | 369 W/m² | - |
| 1777385782 | 25.56° C | 33% | 1011.9 hPa | 0 mm | 166.75 m/s, ° | 373 W/m² | - |
| 1777385482 | 25.56° C | 33% | 1011.9 hPa | 0 mm | 159.59 m/s, ° | 357 W/m² | - |
| 1777385182 | 25.56° C | 38% | 1011.9 hPa | 0 mm | 180.6 m/s, ° | 404 W/m² | - |
| 1777384882 | 25.56° C | 33% | 1011.8 hPa | 0 mm | 173.9 m/s, ° | 389 W/m² | - |
| 1777384582 | 25.56° C | 36% | 1012.2 hPa | 0 mm | 164.06 m/s, ° | 367 W/m² | - |
| 1777384282 | 25.56° C | 37% | 1012.1 hPa | 0 mm | 168.09 m/s, ° | 376 W/m² | - |
| 1777383982 | 25.56° C | 39% | 1012.2 hPa | 0 mm | 165.85 m/s, ° | 371 W/m² | - |
| 1777383682 | 25.56° C | 38% | 1012 hPa | 0 mm | 153.33 m/s, ° | 343 W/m² | - |
| 1777383382 | 25.56° C | 36% | 1012.2 hPa | 0 mm | 178.82 m/s, ° | 400 W/m² | - |
| 1777383082 | 25.56° C | 39% | 1012.3 hPa | 0 mm | 194.02 m/s, ° | 434 W/m² | - |
* Rain latest hour (hover to see other rain measurements)
** Current wind speed in m/s (hover to see current wind gust speed)